Time;durP1;ratioP1;P1;durP2;ratioP2;P2;SDS_P1;SDS_P2;PMS_P1;PMS_P2;Temp;Humidity;BMP_temperature;BMP_pressure;BME280_temperature;BME280_humidity;BME280_pressure;Samples;Min_cycle;Max_cycle;Signal;HPM_P1;HPM_P2
2022/08/22 00:00:15;;;;;;;;;;;;;;;;;;4996933;28;19917;-79
2022/08/22 00:02:41;;;;;;;;;;;;;;;;;;4980699;28;19960;-78
2022/08/22 00:05:07;;;;;;;;;;;;;;;;;;5014704;28;19928;-79
2022/08/22 00:07:32;;;;;;;;;;;;;;;;;;4997040;28;19917;-78
2022/08/22 00:09:58;;;;;;;;;;;;;;;;;;5014833;28;19914;-79
2022/08/22 00:12:23;;;;;;;;;;;;;;;;;;4980186;28;19963;-78
2022/08/22 00:14:49;;;;;;;;;;;;;;;;;;4996735;28;19952;-77
2022/08/22 00:17:16;;;;;;;;;;;;;;;;;;4980631;28;19914;-78
2022/08/22 00:19:41;;;;;;;;;;;;;;;;;;4981024;28;20024;-78
2022/08/22 00:22:07;;;;;;;;;;;;;;;;;;5014184;28;19953;-78
2022/08/22 00:24:33;;;;;;;;;;;;;;;;;;4996788;28;19924;-79
2022/08/22 00:26:58;;;;;;;;;;;;;;;;;;4996897;28;19913;-79
2022/08/22 00:29:24;;;;;;;;;;;;;;;;;;4981036;28;20008;-79
2022/08/22 00:31:50;;;;;;;;;;;;;;;;;;5014629;28;19919;-79
2022/08/22 00:34:16;;;;;;;;;;;;;;;;;;5013881;28;19913;-78
2022/08/22 00:36:42;;;;;;;;;;;;;;;;;;5014029;28;19924;-79
2022/08/22 00:39:07;;;;;;;;;;;;;;;;;;5014552;28;20040;-79
2022/08/22 00:41:33;;;;;;;;;;;;;;;;;;4996903;28;19917;-79
2022/08/22 00:43:58;;;;;;;;;;;;;;;;;;4996172;28;19937;-79
2022/08/22 00:46:24;;;;;;;;;;;;;;;;;;4980641;28;19924;-78
2022/08/22 00:48:49;;;;;;;;;;;;;;;;;;4980315;28;19913;-78
2022/08/22 00:51:15;;;;;;;;;;;;;;;;;;4980618;28;19913;-78
2022/08/22 00:53:40;;;;;;;;;;;;;;;;;;4995898;28;19918;-78
2022/08/22 00:56:07;;;;;;;;;;;;;;;;;;4979693;28;20124;-78
2022/08/22 00:58:32;;;;;;;;;;;;;;;;;;4980475;28;19940;-78
2022/08/22 01:00:58;;;;;;;;;;;;;;;;;;4996704;28;19913;-79
2022/08/22 01:03:23;;;;;;;;;;;;;;;;;;4995572;28;19924;-78
2022/08/22 01:05:49;;;;;;;;;;;;;;;;;;4980072;28;20332;-78
2022/08/22 01:08:14;;;;;;;;;;;;;;;;;;5013998;28;19921;-78
2022/08/22 01:10:40;;;;;;;;;;;;;;;;;;4996450;28;19921;-78
2022/08/22 01:13:06;;;;;;;;;;;;;;;;;;4979921;28;19959;-78
2022/08/22 01:15:32;;;;;;;;;;;;;;;;;;5013795;28;19918;-79
2022/08/22 01:17:58;;;;;;;;;;;;;;;;;;4979942;28;19995;-78
2022/08/22 01:20:23;;;;;;;;;;;;;;;;;;4996281;28;20344;-78
2022/08/22 01:22:49;;;;;;;;;;;;;;;;;;4995731;28;19914;-77
2022/08/22 01:25:18;;;;;;;;;;;;;;;;;;5013228;28;19913;-77
2022/08/22 01:27:43;;;;;;;;;;;;;;;;;;5012426;28;19910;-78
2022/08/22 01:30:09;;;;;;;;;;;;;;;;;;5012452;28;20281;-78
2022/08/22 01:32:34;;;;;;;;;;;;;;;;;;5011930;28;19913;-78
2022/08/22 01:35:00;;;;;;;;;;;;;;;;;;5012271;28;19918;-77
2022/08/22 01:37:25;;;;;;;;;;;;;;;;;;4978726;28;20285;-78
2022/08/22 01:39:51;;;;;;;;;;;;;;;;;;5012263;28;20012;-77
2022/08/22 01:42:16;;;;;;;;;;;;;;;;;;4994566;28;20330;-78
2022/08/22 01:44:42;;;;;;;;;;;;;;;;;;4994382;28;19914;-77
2022/08/22 01:47:07;;;;;;;;;;;;;;;;;;4994715;28;19920;-78
2022/08/22 01:49:33;;;;;;;;;;;;;;;;;;4994587;28;19913;-78
2022/08/22 01:51:58;;;;;;;;;;;;;;;;;;5012325;28;20000;-78
2022/08/22 01:54:24;;;;;;;;;;;;;;;;;;4977770;28;20192;-78
2022/08/22 01:56:49;;;;;;;;;;;;;;;;;;5012290;28;19923;-78
2022/08/22 01:59:15;;;;;;;;;;;;;;;;;;4978594;28;19920;-78
2022/08/22 02:01:40;;;;;;;;;;;;;;;;;;4994718;28;19913;-78
2022/08/22 02:04:06;;;;;;;;;;;;;;;;;;4994409;28;20342;-78
2022/08/22 02:06:32;;;;;;;;;;;;;;;;;;4994794;28;20389;-78
2022/08/22 02:08:58;;;;;;;;;;;;;;;;;;4997817;28;19914;-78
2022/08/22 02:11:23;;;;;;;;;;;;;;;;;;4982129;28;19914;-78
2022/08/22 02:13:49;;;;;;;;;;;;;;;;;;4965735;28;20299;-78
2022/08/22 02:16:14;;;;;;;;;;;;;;;;;;4981756;28;19972;-77
2022/08/22 02:18:40;;;;;;;;;;;;;;;;;;4981924;28;19937;-78
2022/08/22 02:21:05;;;;;;;;;;;;;;;;;;4982008;28;20012;-78
2022/08/22 02:23:31;;;;;;;;;;;;;;;;;;4997633;28;20113;-77
2022/08/22 02:25:57;;;;;;;;;;;;;;;;;;4998120;28;19952;-77
2022/08/22 02:28:23;;;;;;;;;;;;;;;;;;4998083;28;19913;-78
2022/08/22 02:30:48;;;;;;;;;;;;;;;;;;4997759;28;19948;-77
2022/08/22 02:33:13;;;;;;;;;;;;;;;;;;4997404;28;19996;-77
2022/08/22 02:35:39;;;;;;;;;;;;;;;;;;4997679;28;20024;-77
2022/08/22 02:38:04;;;;;;;;;;;;;;;;;;4981610;28;20047;-77
2022/08/22 02:40:30;;;;;;;;;;;;;;;;;;4997796;28;20300;-78
2022/08/22 02:42:55;;;;;;;;;;;;;;;;;;4997383;28;19920;-77
2022/08/22 02:45:21;;;;;;;;;;;;;;;;;;5015029;28;19987;-77
2022/08/22 02:47:47;;;;;;;;;;;;;;;;;;4997772;28;20331;-77
2022/08/22 02:50:12;;;;;;;;;;;;;;;;;;5015003;28;19939;-77
2022/08/22 02:52:37;;;;;;;;;;;;;;;;;;4996975;28;19909;-77
2022/08/22 02:55:05;;;;;;;;;;;;;;;;;;4980480;28;21860;-77
2022/08/22 02:57:30;;;;;;;;;;;;;;;;;;5014924;28;19920;-77
2022/08/22 02:59:56;;;;;;;;;;;;;;;;;;4997108;28;19914;-77
2022/08/22 03:02:21;;;;;;;;;;;;;;;;;;4997075;28;19914;-77
2022/08/22 03:04:47;;;;;;;;;;;;;;;;;;5014386;28;19914;-77
2022/08/22 03:07:13;;;;;;;;;;;;;;;;;;4997254;28;19984;-78
2022/08/22 03:09:39;;;;;;;;;;;;;;;;;;4997328;28;19914;-78
2022/08/22 03:12:04;;;;;;;;;;;;;;;;;;4981128;28;19920;-78
2022/08/22 03:14:30;;;;;;;;;;;;;;;;;;5014108;28;19943;-78
2022/08/22 03:16:55;;;;;;;;;;;;;;;;;;4980801;28;19940;-78
2022/08/22 03:19:21;;;;;;;;;;;;;;;;;;4996519;28;19918;-78
2022/08/22 03:21:46;;;;;;;;;;;;;;;;;;5014451;28;19920;-78
2022/08/22 03:24:11;;;;;;;;;;;;;;;;;;4996528;28;19921;-78
2022/08/22 03:26:37;;;;;;;;;;;;;;;;;;4996813;28;19921;-78
2022/08/22 03:29:03;;;;;;;;;;;;;;;;;;4996821;28;20316;-77
2022/08/22 03:31:28;;;;;;;;;;;;;;;;;;5014150;28;19987;-78
2022/08/22 03:33:54;;;;;;;;;;;;;;;;;;5013800;28;19968;-77
2022/08/22 03:36:19;;;;;;;;;;;;;;;;;;4996609;28;19917;-78
2022/08/22 03:38:45;;;;;;;;;;;;;;;;;;4964592;28;19913;-78
2022/08/22 03:41:10;;;;;;;;;;;;;;;;;;5014065;28;19914;-78
2022/08/22 03:43:36;;;;;;;;;;;;;;;;;;5013350;28;19913;-78
2022/08/22 03:46:01;;;;;;;;;;;;;;;;;;4980168;28;19917;-78
2022/08/22 03:48:27;;;;;;;;;;;;;;;;;;4996408;28;19920;-78
2022/08/22 03:50:52;;;;;;;;;;;;;;;;;;4980538;28;20093;-78
2022/08/22 03:53:18;;;;;;;;;;;;;;;;;;4979711;28;19913;-78
2022/08/22 03:55:43;;;;;;;;;;;;;;;;;;4979977;28;19917;-78
2022/08/22 03:58:09;;;;;;;;;;;;;;;;;;5013802;28;19933;-78
2022/08/22 04:00:35;;;;;;;;;;;;;;;;;;4996342;28;20280;-78
2022/08/22 04:03:03;;;;;;;;;;;;;;;;;;5013386;28;20280;-78
2022/08/22 04:05:29;;;;;;;;;;;;;;;;;;5013474;28;20365;-78
2022/08/22 04:07:54;;;;;;;;;;;;;;;;;;4963978;28;19913;-78
2022/08/22 04:10:20;;;;;;;;;;;;;;;;;;4996151;28;20436;-78
2022/08/22 04:12:46;;;;;;;;;;;;;;;;;;5012890;28;20003;-77
2022/08/22 04:15:13;;;;;;;;;;;;;;;;;;5012183;28;19972;-78
2022/08/22 04:17:38;;;;;;;;;;;;;;;;;;4995811;28;20377;-77
2022/08/22 04:20:04;;;;;;;;;;;;;;;;;;5013351;28;19913;-78
2022/08/22 04:22:30;;;;;;;;;;;;;;;;;;4995626;28;19948;-77
2022/08/22 04:24:55;;;;;;;;;;;;;;;;;;5012956;28;19914;-77
2022/08/22 04:27:21;;;;;;;;;;;;;;;;;;5013167;28;19918;-77
2022/08/22 04:29:46;;;;;;;;;;;;;;;;;;4963278;28;19964;-78
2022/08/22 04:32:13;;;;;;;;;;;;;;;;;;4994550;28;19939;-78
2022/08/22 04:34:39;;;;;;;;;;;;;;;;;;4995275;28;19913;-78
2022/08/22 04:37:05;;;;;;;;;;;;;;;;;;4995165;28;19971;-79
2022/08/22 04:39:30;;;;;;;;;;;;;;;;;;4995429;28;20000;-77
2022/08/22 04:41:56;;;;;;;;;;;;;;;;;;4995348;28;20449;-78
2022/08/22 04:44:22;;;;;;;;;;;;;;;;;;5012245;28;19924;-78
2022/08/22 04:46:48;;;;;;;;;;;;;;;;;;5012688;28;20369;-77
2022/08/22 04:49:13;;;;;;;;;;;;;;;;;;4995266;28;20325;-78
2022/08/22 04:51:39;;;;;;;;;;;;;;;;;;5012922;28;19976;-78
2022/08/22 04:54:05;;;;;;;;;;;;;;;;;;4994682;28;20262;-78
2022/08/22 04:56:30;;;;;;;;;;;;;;;;;;5012704;28;20292;-78
2022/08/22 04:58:56;;;;;;;;;;;;;;;;;;4995113;28;19914;-78
2022/08/22 05:01:24;;;;;;;;;;;;;;;;;;5013002;28;19918;-79
2022/08/22 05:03:50;;;;;;;;;;;;;;;;;;4994812;28;20395;-78
2022/08/22 05:06:17;;;;;;;;;;;;;;;;;;4995127;28;20453;-78
2022/08/22 05:08:43;;;;;;;;;;;;;;;;;;5012665;28;19916;-78
2022/08/22 05:11:09;;;;;;;;;;;;;;;;;;4995092;28;20384;-79
2022/08/22 05:13:35;;;;;;;;;;;;;;;;;;4994669;28;20405;-78
2022/08/22 05:16:02;;;;;;;;;;;;;;;;;;4994894;28;19940;-78
2022/08/22 05:18:27;;;;;;;;;;;;;;;;;;4979091;28;20012;-77
2022/08/22 05:20:53;;;;;;;;;;;;;;;;;;4962940;28;20334;-79
2022/08/22 05:23:18;;;;;;;;;;;;;;;;;;5011983;28;19913;-78
2022/08/22 05:25:44;;;;;;;;;;;;;;;;;;5012516;28;19917;-78
2022/08/22 05:28:10;;;;;;;;;;;;;;;;;;4994571;28;19913;-78
2022/08/22 05:30:36;;;;;;;;;;;;;;;;;;4994608;28;20300;-79
2022/08/22 05:33:02;;;;;;;;;;;;;;;;;;4977952;28;19917;-78
2022/08/22 05:35:28;;;;;;;;;;;;;;;;;;5011935;28;20019;-78
2022/08/22 05:37:54;;;;;;;;;;;;;;;;;;4994587;28;19916;-78
2022/08/22 05:40:19;;;;;;;;;;;;;;;;;;4994888;28;19956;-78
2022/08/22 05:42:44;;;;;;;;;;;;;;;;;;4979221;28;19956;-78
2022/08/22 05:45:10;;;;;;;;;;;;;;;;;;5015739;28;19975;-78
2022/08/22 05:47:35;;;;;;;;;;;;;;;;;;4998318;28;19918;-79
2022/08/22 05:50:01;;;;;;;;;;;;;;;;;;4982264;28;19968;-79
2022/08/22 05:52:27;;;;;;;;;;;;;;;;;;4998491;28;20315;-78
2022/08/22 05:54:52;;;;;;;;;;;;;;;;;;4982149;28;20061;-79
2022/08/22 05:57:18;;;;;;;;;;;;;;;;;;4998511;28;19910;-79
2022/08/22 05:59:43;;;;;;;;;;;;;;;;;;4998639;28;19914;-78
2022/08/22 06:02:09;;;;;;;;;;;;;;;;;;4998279;28;19917;-79
2022/08/22 06:04:35;;;;;;;;;;;;;;;;;;4981694;28;19936;-79
2022/08/22 06:07:01;;;;;;;;;;;;;;;;;;4982113;28;20003;-79
2022/08/22 06:09:26;;;;;;;;;;;;;;;;;;5015684;28;19929;-79
2022/08/22 06:11:52;;;;;;;;;;;;;;;;;;5015931;28;19948;-80
2022/08/22 06:14:18;;;;;;;;;;;;;;;;;;4997859;28;19913;-79
2022/08/22 06:16:43;;;;;;;;;;;;;;;;;;4998208;28;19917;-79
2022/08/22 06:19:09;;;;;;;;;;;;;;;;;;4981946;28;19945;-79
2022/08/22 06:21:40;;;;;;;;;;;;;;;;;;4998145;28;19953;-79
2022/08/22 06:24:07;;;;;;;;;;;;;;;;;;5015054;28;19920;-78
2022/08/22 06:26:33;;;;;;;;;;;;;;;;;;5015414;28;19914;-78
2022/08/22 06:28:58;;;;;;;;;;;;;;;;;;5015492;28;19917;-78
2022/08/22 06:31:24;;;;;;;;;;;;;;;;;;5015282;28;20258;-76
2022/08/22 06:33:50;;;;;;;;;;;;;;;;;;5014634;28;19952;-77
2022/08/22 06:36:32;;;;;;;;;;;;;;;;;;5015274;28;19924;-78
2022/08/22 06:38:58;;;;;;;;;;;;;;;;;;5014012;28;20401;-79
2022/08/22 06:41:23;;;;;;;;;;;;;;;;;;4981737;28;19916;-81
2022/08/22 06:43:51;;;;;;;;;;;;;;;;;;4965593;28;19913;-82
2022/08/22 06:46:20;;;;;;;;;;;;;;;;;;4966475;28;19913;-79
2022/08/22 06:48:45;;;;;;;;;;;;;;;;;;4965566;28;19921;-77
2022/08/22 06:51:11;;;;;;;;;;;;;;;;;;4997496;28;19917;-77
2022/08/22 06:53:37;;;;;;;;;;;;;;;;;;4964594;28;19982;-78
2022/08/22 06:56:04;;;;;;;;;;;;;;;;;;4979654;28;19971;-78
2022/08/22 06:58:30;;;;;;;;;;;;;;;;;;4981340;28;19940;-78
2022/08/22 07:00:56;;;;;;;;;;;;;;;;;;4997574;28;20368;-80
2022/08/22 07:03:22;;;;;;;;;;;;;;;;;;4981067;28;19917;-79
2022/08/22 07:05:48;;;;;;;;;;;;;;;;;;5015216;28;19914;-80
2022/08/22 07:08:14;;;;;;;;;;;;;;;;;;4967183;28;20008;-79
2022/08/22 07:10:39;;;;;;;;;;;;;;;;;;4997680;28;20396;-79
2022/08/22 07:13:10;;;;;;;;;;;;;;;;;;5014417;28;19943;-79
2022/08/22 07:15:36;;;;;;;;;;;;;;;;;;4980875;28;19918;-78
2022/08/22 07:18:01;;;;;;;;;;;;;;;;;;4980968;28;19928;-78
2022/08/22 07:20:27;;;;;;;;;;;;;;;;;;5014451;28;19921;-78
2022/08/22 07:22:52;;;;;;;;;;;;;;;;;;5014148;28;19917;-78
2022/08/22 07:25:18;;;;;;;;;;;;;;;;;;5013328;28;20343;-78
2022/08/22 07:27:43;;;;;;;;;;;;;;;;;;4996849;28;20293;-77
2022/08/22 07:30:09;;;;;;;;;;;;;;;;;;4980738;28;20034;-78
2022/08/22 07:32:40;;;;;;;;;;;;;;;;;;4980903;28;19921;-78
2022/08/22 07:35:09;;;;;;;;;;;;;;;;;;4996752;28;19914;-78
2022/08/22 07:37:35;;;;;;;;;;;;;;;;;;4996659;28;19920;-78
2022/08/22 07:40:02;;;;;;;;;;;;;;;;;;4996810;28;19913;-78
2022/08/22 07:42:28;;;;;;;;;;;;;;;;;;4980248;28;19914;-78
2022/08/22 07:44:53;;;;;;;;;;;;;;;;;;4980090;28;19913;-78
2022/08/22 07:47:19;;;;;;;;;;;;;;;;;;4996582;28;19921;-79
2022/08/22 07:49:45;;;;;;;;;;;;;;;;;;4996685;28;19917;-80
2022/08/22 07:52:10;;;;;;;;;;;;;;;;;;4996335;28;19913;-78
2022/08/22 07:54:35;;;;;;;;;;;;;;;;;;4979611;28;19917;-78
2022/08/22 07:57:01;;;;;;;;;;;;;;;;;;4980013;28;20364;-77
2022/08/22 07:59:27;;;;;;;;;;;;;;;;;;4980086;28;19953;-79
2022/08/22 08:01:52;;;;;;;;;;;;;;;;;;4980134;28;19914;-79
2022/08/22 08:04:18;;;;;;;;;;;;;;;;;;4979922;28;19921;-81
2022/08/22 08:06:44;;;;;;;;;;;;;;;;;;4996147;28;19917;-78
2022/08/22 08:09:09;;;;;;;;;;;;;;;;;;5012342;28;19977;-77
2022/08/22 08:11:36;;;;;;;;;;;;;;;;;;4995732;28;19921;-78
2022/08/22 08:14:02;;;;;;;;;;;;;;;;;;4979139;28;19913;-77
2022/08/22 08:16:27;;;;;;;;;;;;;;;;;;4995458;28;19917;-77
2022/08/22 08:18:53;;;;;;;;;;;;;;;;;;5013738;28;20373;-78
2022/08/22 08:21:19;;;;;;;;;;;;;;;;;;4963591;28;19920;-76
2022/08/22 08:23:45;;;;;;;;;;;;;;;;;;5012637;28;19920;-76
2022/08/22 08:26:10;;;;;;;;;;;;;;;;;;4995528;28;19914;-77
2022/08/22 08:28:36;;;;;;;;;;;;;;;;;;4995559;28;20266;-76
2022/08/22 08:31:02;;;;;;;;;;;;;;;;;;5012992;28;19917;-77
2022/08/22 08:33:28;;;;;;;;;;;;;;;;;;4995465;28;20411;-77
2022/08/22 08:35:53;;;;;;;;;;;;;;;;;;4995329;28;19988;-78
2022/08/22 08:38:19;;;;;;;;;;;;;;;;;;4979126;28;19920;-77
2022/08/22 08:40:44;;;;;;;;;;;;;;;;;;4995574;28;20278;-78
2022/08/22 08:43:26;;;;;;;;;;;;;;;;;;4995161;28;20388;-78
2022/08/22 08:45:52;;;;;;;;;;;;;;;;;;5012805;28;20446;-78
2022/08/22 08:48:18;;;;;;;;;;;;;;;;;;4995104;28;19909;-79
2022/08/22 08:50:44;;;;;;;;;;;;;;;;;;4979155;28;20384;-78
2022/08/22 08:53:09;;;;;;;;;;;;;;;;;;4962594;28;19949;-78
2022/08/22 08:55:35;;;;;;;;;;;;;;;;;;4979025;28;19933;-77
2022/08/22 08:58:01;;;;;;;;;;;;;;;;;;4978887;28;19913;-77
2022/08/22 09:00:27;;;;;;;;;;;;;;;;;;4995037;28;20351;-77
2022/08/22 09:02:53;;;;;;;;;;;;;;;;;;4978624;28;19913;-78
2022/08/22 09:05:18;;;;;;;;;;;;;;;;;;4994860;28;20278;-78
2022/08/22 09:07:44;;;;;;;;;;;;;;;;;;4995011;28;19920;-78
2022/08/22 09:10:10;;;;;;;;;;;;;;;;;;4980705;28;20293;-77
2022/08/22 09:12:35;;;;;;;;;;;;;;;;;;4979364;28;19913;-77
2022/08/22 09:15:01;;;;;;;;;;;;;;;;;;4964391;28;20376;-78
2022/08/22 09:17:27;;;;;;;;;;;;;;;;;;4963620;28;19952;-78
2022/08/22 09:19:52;;;;;;;;;;;;;;;;;;4980620;28;19940;-77
2022/08/22 09:22:18;;;;;;;;;;;;;;;;;;5013382;28;19945;-78
2022/08/22 09:24:43;;;;;;;;;;;;;;;;;;4978374;28;19967;-79
2022/08/22 09:27:09;;;;;;;;;;;;;;;;;;4979224;28;19933;-78
2022/08/22 09:29:35;;;;;;;;;;;;;;;;;;4978666;28;19920;-77
2022/08/22 09:32:02;;;;;;;;;;;;;;;;;;4994816;28;19913;-78
2022/08/22 09:34:27;;;;;;;;;;;;;;;;;;4978168;28;20046;-78
2022/08/22 09:36:53;;;;;;;;;;;;;;;;;;5012482;28;19917;-78
2022/08/22 09:39:19;;;;;;;;;;;;;;;;;;5012463;28;19909;-79
2022/08/22 09:41:44;;;;;;;;;;;;;;;;;;4979618;28;20000;-78
2022/08/22 09:44:10;;;;;;;;;;;;;;;;;;4962587;28;20317;-78
2022/08/22 09:46:36;;;;;;;;;;;;;;;;;;5012840;28;20334;-78
2022/08/22 09:49:01;;;;;;;;;;;;;;;;;;4995321;28;19933;-79
2022/08/22 09:51:28;;;;;;;;;;;;;;;;;;4995171;28;19936;-78
2022/08/22 09:53:53;;;;;;;;;;;;;;;;;;5010884;28;20411;-76
2022/08/22 09:56:19;;;;;;;;;;;;;;;;;;5043806;23;19925;-78
2022/08/22 09:58:44;;;;;;;;;;;;;;;;;;5053604;28;19916;-77
2022/08/22 10:01:10;;;;;;;;;;;;;;;;;;5053782;28;20367;-77
2022/08/22 10:03:37;;;;;;;;;;;;;;;;;;5036841;28;19913;-75
2022/08/22 10:06:03;;;;;;;;;;;;;;;;;;5090059;28;19912;-78
2022/08/22 10:08:29;;;;;;;;;;;;;;;;;;5074629;28;19912;-78
2022/08/22 10:10:54;;;;;;;;;;;;;;;;;;5073356;28;20384;-77
2022/08/22 10:13:20;;;;;;;;;;;;;;;;;;5091388;28;19908;-78
2022/08/22 10:15:46;;;;;;;;;;;;;;;;;;5057507;28;20362;-77
2022/08/22 10:18:11;;;;;;;;;;;;;;;;;;5074501;28;19912;-77
2022/08/22 10:20:37;;;;;;;;;;;;;;;;;;5073423;28;19912;-77
2022/08/22 10:23:03;;;;;;;;;;;;;;;;;;5091386;28;20260;-77
2022/08/22 10:25:28;;;;;;;;;;;;;;;;;;5057249;28;20056;-77
2022/08/22 10:27:54;;;;;;;;;;;;;;;;;;5073812;28;20379;-80
2022/08/22 10:30:19;;;;;;;;;;;;;;;;;;5076976;28;20371;-77
2022/08/22 10:32:45;;;;;;;;;;;;;;;;;;5043694;28;20279;-77
2022/08/22 10:35:12;;;;;;;;;;;;;;;;;;5076917;28;19934;-77
2022/08/22 10:37:38;;;;;;;;;;;;;;;;;;5060114;28;19912;-78
2022/08/22 10:40:03;;;;;;;;;;;;;;;;;;5059841;28;20306;-78
2022/08/22 10:42:32;;;;;;;;;;;;;;;;;;5060177;28;19908;-78
2022/08/22 10:44:57;;;;;;;;;;;;;;;;;;5076830;28;19919;-79
2022/08/22 10:47:23;;;;;;;;;;;;;;;;;;5076683;28;19912;-78
2022/08/22 10:49:49;;;;;;;;;;;;;;;;;;5077122;28;19955;-79
2022/08/22 10:52:14;;;;;;;;;;;;;;;;;;5076946;28;19912;-78
2022/08/22 10:54:40;;;;;;;;;;;;;;;;;;5076371;28;20287;-78
2022/08/22 10:57:06;;;;;;;;;;;;;;;;;;5060095;28;20333;-76
2022/08/22 10:59:31;;;;;;;;;;;;;;;;;;5094862;28;19908;-78
2022/08/22 11:01:57;;;;;;;;;;;;;;;;;;5059889;28;19912;-76
2022/08/22 11:04:23;;;;;;;;;;;;;;;;;;5076167;28;20390;-77
2022/08/22 11:06:48;;;;;;;;;;;;;;;;;;5059611;28;19912;-78
2022/08/22 11:09:14;;;;;;;;;;;;;;;;;;5060529;28;19919;-77
2022/08/22 11:11:40;;;;;;;;;;;;;;;;;;5077909;28;19912;-79
2022/08/22 11:14:05;;;;;;;;;;;;;;;;;;5078958;28;19911;-77
2022/08/22 11:16:31;;;;;;;;;;;;;;;;;;5077407;28;20026;-78
2022/08/22 11:18:57;;;;;;;;;;;;;;;;;;5077633;28;19934;-78
2022/08/22 11:21:23;;;;;;;;;;;;;;;;;;5095080;28;19913;-77
2022/08/22 11:23:48;;;;;;;;;;;;;;;;;;5059517;28;19912;-78
2022/08/22 11:26:14;;;;;;;;;;;;;;;;;;5094342;28;19916;-78
2022/08/22 11:28:39;;;;;;;;;;;;;;;;;;5076533;28;19912;-78
2022/08/22 11:31:05;;;;;;;;;;;;;;;;;;5044046;28;19916;-79
2022/08/22 11:33:30;;;;;;;;;;;;;;;;;;5059440;28;20352;-78
2022/08/22 11:35:56;;;;;;;;;;;;;;;;;;5076751;28;19919;-77
2022/08/22 11:38:22;;;;;;;;;;;;;;;;;;5076085;28;19916;-77
2022/08/22 11:40:48;;;;;;;;;;;;;;;;;;5076080;28;19912;-77
2022/08/22 11:43:13;;;;;;;;;;;;;;;;;;5059424;28;20023;-77
2022/08/22 11:45:39;;;;;;;;;;;;;;;;;;5076743;28;19913;-78
2022/08/22 11:48:05;;;;;;;;;;;;;;;;;;5075812;28;19912;-78
2022/08/22 11:50:31;;;;;;;;;;;;;;;;;;5059395;28;20185;-77
2022/08/22 11:52:57;;;;;;;;;;;;;;;;;;5075003;28;19912;-77
2022/08/22 11:55:22;;;;;;;;;;;;;;;;;;5058697;28;19916;-78
2022/08/22 11:57:48;;;;;;;;;;;;;;;;;;5076272;28;19934;-77
2022/08/22 12:00:14;;;;;;;;;;;;;;;;;;5075678;28;19935;-77
2022/08/22 12:02:40;;;;;;;;;;;;;;;;;;5093767;28;20371;-77
2022/08/22 12:05:05;;;;;;;;;;;;;;;;;;5075967;28;19922;-78
2022/08/22 12:07:31;;;;;;;;;;;;;;;;;;5075565;28;19912;-76
2022/08/22 12:09:57;;;;;;;;;;;;;;;;;;5093793;28;19999;-78
2022/08/22 12:12:23;;;;;;;;;;;;;;;;;;5074996;28;19922;-77
2022/08/22 12:14:48;;;;;;;;;;;;;;;;;;5075004;28;19912;-78
2022/08/22 12:17:14;;;;;;;;;;;;;;;;;;5074917;28;19923;-75
2022/08/22 12:19:40;;;;;;;;;;;;;;;;;;5074893;28;19918;-77
2022/08/22 12:22:05;;;;;;;;;;;;;;;;;;5057994;28;20018;-77
2022/08/22 12:24:31;;;;;;;;;;;;;;;;;;5092217;28;19912;-78
2022/08/22 12:26:57;;;;;;;;;;;;;;;;;;5074721;28;19912;-77
2022/08/22 12:29:22;;;;;;;;;;;;;;;;;;5074748;28;19912;-77
2022/08/22 12:31:48;;;;;;;;;;;;;;;;;;5058558;28;19961;-77
2022/08/22 12:34:14;;;;;;;;;;;;;;;;;;5073995;28;19912;-77
2022/08/22 12:36:40;;;;;;;;;;;;;;;;;;5092610;28;19916;-78
2022/08/22 12:39:05;;;;;;;;;;;;;;;;;;5058053;28;19916;-77
2022/08/22 12:41:31;;;;;;;;;;;;;;;;;;5092494;28;19916;-77
2022/08/22 12:43:57;;;;;;;;;;;;;;;;;;5091932;28;19919;-77
2022/08/22 12:46:22;;;;;;;;;;;;;;;;;;5057577;28;19912;-78
2022/08/22 12:48:50;;;;;;;;;;;;;;;;;;5074816;28;19912;-77
2022/08/22 12:51:16;;;;;;;;;;;;;;;;;;5057490;28;19962;-78
2022/08/22 12:53:42;;;;;;;;;;;;;;;;;;5073249;28;19916;-78
2022/08/22 12:56:07;;;;;;;;;;;;;;;;;;5092062;28;19939;-78
2022/08/22 12:58:33;;;;;;;;;;;;;;;;;;5041537;28;19915;-77
2022/08/22 13:01:00;;;;;;;;;;;;;;;;;;5074568;28;19912;-77
2022/08/22 13:03:26;;;;;;;;;;;;;;;;;;5074043;28;20415;-77
2022/08/22 13:05:51;;;;;;;;;;;;;;;;;;5091828;28;19912;-78
2022/08/22 13:08:17;;;;;;;;;;;;;;;;;;5091970;28;20151;-77
2022/08/22 13:10:42;;;;;;;;;;;;;;;;;;5057019;28;19919;-76
2022/08/22 13:13:08;;;;;;;;;;;;;;;;;;5073275;28;19912;-76
2022/08/22 13:15:34;;;;;;;;;;;;;;;;;;5073573;28;20019;-78
2022/08/22 13:18:00;;;;;;;;;;;;;;;;;;5073785;28;19919;-75
2022/08/22 13:20:26;;;;;;;;;;;;;;;;;;5057007;28;19972;-77
2022/08/22 13:22:52;;;;;;;;;;;;;;;;;;5040331;28;19927;-77
2022/08/22 13:25:18;;;;;;;;;;;;;;;;;;5074008;28;19912;-78
2022/08/22 13:27:43;;;;;;;;;;;;;;;;;;5074624;28;19919;-78
2022/08/22 13:30:10;;;;;;;;;;;;;;;;;;5073763;28;19912;-77
2022/08/22 13:32:36;;;;;;;;;;;;;;;;;;5056853;28;19919;-76
2022/08/22 13:35:01;;;;;;;;;;;;;;;;;;5075526;28;19912;-78
2022/08/22 13:37:27;;;;;;;;;;;;;;;;;;5061294;28;20285;-78
2022/08/22 13:39:52;;;;;;;;;;;;;;;;;;5057272;28;20408;-77
2022/08/22 13:42:18;;;;;;;;;;;;;;;;;;5056957;28;19913;-77
2022/08/22 13:44:44;;;;;;;;;;;;;;;;;;5056875;28;19944;-77
2022/08/22 13:47:11;;;;;;;;;;;;;;;;;;5074251;28;19908;-77
2022/08/22 13:49:37;;;;;;;;;;;;;;;;;;5041211;28;19912;-77
2022/08/22 13:52:04;;;;;;;;;;;;;;;;;;5073350;28;19914;-77
2022/08/22 13:54:30;;;;;;;;;;;;;;;;;;5073620;28;19935;-76
2022/08/22 13:57:05;;;;;;;;;;;;;;;;;;5059341;28;20294;-77
2022/08/22 13:59:31;;;;;;;;;;;;;;;;;;5093686;28;19931;-77
2022/08/22 14:01:56;;;;;;;;;;;;;;;;;;5074611;28;19912;-78
2022/08/22 14:04:22;;;;;;;;;;;;;;;;;;5075373;28;19968;-79
2022/08/22 14:06:47;;;;;;;;;;;;;;;;;;5060831;28;19912;-77
2022/08/22 14:09:13;;;;;;;;;;;;;;;;;;5077713;28;19912;-76
2022/08/22 14:11:39;;;;;;;;;;;;;;;;;;5095272;28;19916;-77
2022/08/22 14:14:05;;;;;;;;;;;;;;;;;;5043625;28;19986;-76
2022/08/22 14:16:33;;;;;;;;;;;;;;;;;;5095181;28;19963;-75
2022/08/22 14:18:59;;;;;;;;;;;;;;;;;;5043488;28;19912;-77
2022/08/22 14:21:25;;;;;;;;;;;;;;;;;;5044578;28;19916;-77
2022/08/22 14:23:51;;;;;;;;;;;;;;;;;;5076400;28;19912;-77
2022/08/22 14:26:16;;;;;;;;;;;;;;;;;;5060502;28;19916;-75
2022/08/22 14:28:42;;;;;;;;;;;;;;;;;;5077450;28;19912;-75
2022/08/22 14:31:09;;;;;;;;;;;;;;;;;;5095175;28;19912;-77
2022/08/22 14:33:34;;;;;;;;;;;;;;;;;;5076256;28;19999;-74
2022/08/22 14:36:00;;;;;;;;;;;;;;;;;;5059750;28;20347;-76
2022/08/22 14:38:26;;;;;;;;;;;;;;;;;;5076575;28;19927;-77
2022/08/22 14:40:51;;;;;;;;;;;;;;;;;;5094805;28;19958;-77
2022/08/22 14:43:17;;;;;;;;;;;;;;;;;;5059964;28;19992;-77
2022/08/22 14:45:43;;;;;;;;;;;;;;;;;;5076906;28;19969;-78
2022/08/22 14:48:09;;;;;;;;;;;;;;;;;;5076867;28;19909;-76
2022/08/22 14:50:34;;;;;;;;;;;;;;;;;;5076830;28;19941;-77
2022/08/22 14:53:00;;;;;;;;;;;;;;;;;;5094196;28;20287;-77
2022/08/22 14:55:25;;;;;;;;;;;;;;;;;;5043008;28;19927;-77
2022/08/22 14:57:51;;;;;;;;;;;;;;;;;;5059978;28;20004;-77
2022/08/22 15:00:19;;;;;;;;;;;;;;;;;;5044091;28;19966;-77
2022/08/22 15:02:45;;;;;;;;;;;;;;;;;;5075607;28;19920;-77
2022/08/22 15:05:11;;;;;;;;;;;;;;;;;;5042792;28;20358;-77
2022/08/22 15:07:37;;;;;;;;;;;;;;;;;;5059566;28;20422;-78
2022/08/22 15:10:02;;;;;;;;;;;;;;;;;;5075431;28;19951;-77
2022/08/22 15:12:28;;;;;;;;;;;;;;;;;;5075882;28;19927;-76
2022/08/22 15:14:53;;;;;;;;;;;;;;;;;;5075434;28;19938;-79
2022/08/22 15:17:19;;;;;;;;;;;;;;;;;;5075954;28;20290;-76
2022/08/22 15:19:45;;;;;;;;;;;;;;;;;;5094867;28;20295;-77
2022/08/22 15:22:10;;;;;;;;;;;;;;;;;;5094183;28;19912;-77
2022/08/22 15:24:36;;;;;;;;;;;;;;;;;;5075570;28;20032;-75
2022/08/22 15:27:01;;;;;;;;;;;;;;;;;;5058972;28;19966;-77
2022/08/22 15:29:26;;;;;;;;;;;;;;;;;;5093771;28;19927;-77
2022/08/22 15:31:52;;;;;;;;;;;;;;;;;;5075843;28;20338;-77
2022/08/22 15:34:18;;;;;;;;;;;;;;;;;;5075320;28;19957;-75
2022/08/22 15:36:44;;;;;;;;;;;;;;;;;;5075763;28;19916;-76
2022/08/22 15:39:09;;;;;;;;;;;;;;;;;;5075613;28;20306;-77
2022/08/22 15:41:34;;;;;;;;;;;;;;;;;;5058723;28;19913;-77
2022/08/22 15:44:00;;;;;;;;;;;;;;;;;;5058168;28;19943;-76
2022/08/22 15:46:26;;;;;;;;;;;;;;;;;;5058482;28;19943;-76
2022/08/22 15:48:51;;;;;;;;;;;;;;;;;;5093586;28;19919;-77
2022/08/22 15:51:17;;;;;;;;;;;;;;;;;;5075277;28;19951;-77
2022/08/22 15:53:43;;;;;;;;;;;;;;;;;;5092514;28;20272;-75
2022/08/22 15:56:08;;;;;;;;;;;;;;;;;;5075136;28;20003;-76
2022/08/22 15:58:36;;;;;;;;;;;;;;;;;;5058780;28;20260;-76
2022/08/22 16:01:01;;;;;;;;;;;;;;;;;;5058490;28;20007;-75
2022/08/22 16:03:27;;;;;;;;;;;;;;;;;;5092778;28;19926;-76
2022/08/22 16:05:52;;;;;;;;;;;;;;;;;;5075084;28;20290;-76
2022/08/22 16:08:18;;;;;;;;;;;;;;;;;;5075266;28;19961;-77
2022/08/22 16:10:43;;;;;;;;;;;;;;;;;;5075159;28;19908;-78
2022/08/22 16:13:09;;;;;;;;;;;;;;;;;;5074509;28;19912;-76
2022/08/22 16:15:35;;;;;;;;;;;;;;;;;;5093171;28;19916;-75
2022/08/22 16:18:00;;;;;;;;;;;;;;;;;;5075353;28;19961;-78
2022/08/22 16:20:26;;;;;;;;;;;;;;;;;;5093493;28;19919;-78
2022/08/22 16:22:52;;;;;;;;;;;;;;;;;;5074447;28;19916;-77
2022/08/22 16:25:17;;;;;;;;;;;;;;;;;;5074695;28;19977;-77
2022/08/22 16:27:43;;;;;;;;;;;;;;;;;;5074457;28;20295;-77
2022/08/22 16:30:08;;;;;;;;;;;;;;;;;;5074554;28;20019;-77
2022/08/22 16:32:34;;;;;;;;;;;;;;;;;;5074069;28;19912;-78
2022/08/22 16:35:00;;;;;;;;;;;;;;;;;;5074278;28;20336;-77